createdAt,value
2022-07-29T00:02:14.320Z,101724.00
2022-07-29T00:12:39.212Z,101717.00
2022-07-29T00:23:04.705Z,101688.00
2022-07-29T00:33:28.474Z,101714.00
2022-07-29T00:43:50.688Z,101693.00
2022-07-29T00:54:16.187Z,101694.00
2022-07-29T01:04:37.717Z,101678.00
2022-07-29T01:15:01.356Z,101683.00
2022-07-29T01:25:50.739Z,101669.00
2022-07-29T01:36:25.830Z,101641.00
2022-07-29T01:46:57.248Z,101601.00
2022-07-29T01:57:26.561Z,101602.00
2022-07-29T02:07:50.119Z,101579.00
2022-07-29T02:18:17.670Z,101594.00
2022-07-29T02:28:41.392Z,101605.00
2022-07-29T02:39:06.048Z,101615.00
2022-07-29T02:49:38.724Z,101601.00
2022-07-29T03:00:06.463Z,101609.00
2022-07-29T03:10:28.995Z,101603.00
2022-07-29T03:20:52.346Z,101597.00
2022-07-29T03:31:13.899Z,101585.00
2022-07-29T03:41:38.976Z,101584.00
2022-07-29T03:52:02.128Z,101580.00
2022-07-29T04:02:30.566Z,101584.00
2022-07-29T04:12:52.422Z,101570.00
2022-07-29T04:23:15.571Z,101587.00
2022-07-29T04:33:37.377Z,101573.00
2022-07-29T04:44:02.095Z,101585.00
2022-07-29T04:54:24.801Z,101579.00
2022-07-29T05:04:50.946Z,101590.00
2022-07-29T05:15:13.032Z,101586.00
2022-07-29T05:25:42.451Z,101585.00
2022-07-29T05:36:08.011Z,101572.00
2022-07-29T05:46:31.885Z,101578.00
2022-07-29T05:56:53.714Z,101579.00
2022-07-29T06:07:17.205Z,101585.00
2022-07-29T06:18:00.806Z,101573.00
2022-07-29T06:28:27.272Z,101572.00
2022-07-29T06:38:51.358Z,101567.00
2022-07-29T06:49:15.671Z,101560.00
2022-07-29T06:59:37.399Z,101572.00
2022-07-29T07:10:00.827Z,101586.00
2022-07-29T07:20:27.125Z,101593.00
2022-07-29T07:30:52.819Z,101582.00
2022-07-29T07:41:15.702Z,101590.00
2022-07-29T07:51:40.038Z,101577.00
2022-07-29T08:02:02.323Z,101550.00
2022-07-29T08:12:25.704Z,101573.00
2022-07-29T08:22:47.624Z,101575.00
2022-07-29T08:33:10.705Z,101562.00
2022-07-29T08:43:32.988Z,101558.00
2022-07-29T08:53:57.280Z,101543.00
2022-07-29T09:04:20.070Z,101554.00
2022-07-29T09:14:43.439Z,101537.00
2022-07-29T09:25:05.646Z,101544.00
2022-07-29T09:35:29.708Z,101525.00
2022-07-29T09:45:51.184Z,101531.00
2022-07-29T09:56:16.525Z,101506.00
2022-07-29T10:07:04.782Z,101505.00
2022-07-29T10:17:34.227Z,101524.00
2022-07-29T10:27:58.896Z,101526.00
2022-07-29T10:38:49.468Z,101506.00
2022-07-29T10:49:15.311Z,101502.00
2022-07-29T10:59:38.968Z,101493.00
2022-07-29T11:10:22.618Z,101489.00
2022-07-29T11:20:55.790Z,101486.00
2022-07-29T11:31:21.818Z,101469.00
2022-07-29T11:41:45.407Z,101475.00
2022-07-29T11:52:11.009Z,101483.00
2022-07-29T12:02:48.254Z,101468.00
2022-07-29T12:13:12.788Z,101452.00
2022-07-29T12:23:40.752Z,101472.00
2022-07-29T12:34:27.205Z,101449.00
2022-07-29T12:44:58.188Z,101429.00
2022-07-29T12:55:50.599Z,101442.00
2022-07-29T13:06:45.878Z,101439.00
2022-07-29T13:17:14.188Z,101421.00
2022-07-29T13:27:37.805Z,101402.00
2022-07-29T13:38:01.389Z,101385.00
2022-07-29T13:48:23.375Z,101400.00
2022-07-29T13:58:48.835Z,101402.00
2022-07-29T14:09:10.724Z,101392.00
2022-07-29T14:19:36.480Z,101366.00
2022-07-29T14:29:58.231Z,101382.00
2022-07-29T14:40:21.681Z,101361.00
2022-07-29T14:50:43.626Z,101361.00
2022-07-29T15:01:06.929Z,101359.00
2022-07-29T15:11:31.761Z,101345.00
2022-07-29T15:22:01.852Z,101349.00
2022-07-29T15:32:26.165Z,101338.00
2022-07-29T15:42:50.804Z,101345.00
2022-07-29T15:53:12.636Z,101335.00
2022-07-29T16:03:35.824Z,101322.00
2022-07-29T16:13:57.316Z,101321.00
2022-07-29T16:24:20.171Z,101307.00
2022-07-29T16:34:41.948Z,101303.00
2022-07-29T16:45:06.074Z,101291.00
2022-07-29T16:55:28.801Z,101295.00
2022-07-29T17:05:54.250Z,101298.00
2022-07-29T17:16:18.397Z,101303.00
2022-07-29T17:26:44.520Z,101308.00
2022-07-29T17:37:06.597Z,101303.00
2022-07-29T17:47:29.303Z,101312.00
2022-07-29T17:57:57.190Z,101308.00
2022-07-29T18:08:28.430Z,101311.00
2022-07-29T18:18:52.794Z,101308.00
2022-07-29T18:29:15.940Z,101330.00
2022-07-29T18:39:37.995Z,101344.00
2022-07-29T18:50:01.447Z,101344.00
2022-07-29T19:00:23.915Z,101356.00
2022-07-29T19:10:47.125Z,101358.00
2022-07-29T19:21:09.016Z,101372.00
2022-07-29T19:31:32.521Z,101372.00
2022-07-29T19:41:59.189Z,101382.00
2022-07-29T19:52:24.994Z,101378.00
2022-07-29T20:02:46.995Z,101381.00
2022-07-29T20:13:10.609Z,101390.00
2022-07-29T20:23:33.483Z,101381.00
2022-07-29T20:33:56.885Z,101391.00
2022-07-29T20:44:19.759Z,101391.00
2022-07-29T20:54:43.297Z,101403.00
2022-07-29T21:05:12.794Z,101403.00
2022-07-29T21:15:36.198Z,101405.00
2022-07-29T21:25:58.583Z,101391.00
2022-07-29T21:47:14.491Z,101403.00
2022-07-29T21:57:48.591Z,101403.00
2022-07-29T22:08:13.767Z,101406.00
2022-07-29T22:18:40.078Z,101399.00
2022-07-29T22:29:02.692Z,101390.00
2022-07-29T22:39:26.721Z,101394.00
2022-07-29T22:49:48.681Z,101385.00
2022-07-29T23:00:15.284Z,101367.00
2022-07-29T23:10:36.943Z,101365.00
2022-07-29T23:21:00.141Z,101365.00
2022-07-29T23:31:25.588Z,101362.00
2022-07-29T23:41:49.147Z,101349.00
2022-07-29T23:52:11.074Z,101346.00
